sensor_id;sensor_type;location;lat;lon;timestamp;P1;durP1;ratioP1;P2;durP2;ratioP2
22363;SDS011;11349;53.412;-1.328;2023-05-02T00:00:32;9.52;;;3.25;;
22363;SDS011;11349;53.412;-1.328;2023-05-02T00:02:59;8.45;;;3.10;;
22363;SDS011;11349;53.412;-1.328;2023-05-02T00:05:25;11.98;;;3.10;;
22363;SDS011;11349;53.412;-1.328;2023-05-02T00:07:51;12.15;;;3.45;;
22363;SDS011;11349;53.412;-1.328;2023-05-02T00:10:17;11.10;;;2.97;;
22363;SDS011;11349;53.412;-1.328;2023-05-02T00:12:43;5.97;;;2.92;;
22363;SDS011;11349;53.412;-1.328;2023-05-02T00:15:09;9.60;;;3.65;;
22363;SDS011;11349;53.412;-1.328;2023-05-02T00:17:35;7.45;;;2.75;;
22363;SDS011;11349;53.412;-1.328;2023-05-02T00:20:04;14.40;;;3.25;;
22363;SDS011;11349;53.412;-1.328;2023-05-02T00:22:30;11.23;;;3.42;;
22363;SDS011;11349;53.412;-1.328;2023-05-02T00:24:56;12.55;;;3.30;;
22363;SDS011;11349;53.412;-1.328;2023-05-02T00:27:22;7.88;;;2.45;;
22363;SDS011;11349;53.412;-1.328;2023-05-02T00:29:48;7.63;;;2.40;;
22363;SDS011;11349;53.412;-1.328;2023-05-02T00:32:14;8.20;;;2.63;;
22363;SDS011;11349;53.412;-1.328;2023-05-02T00:34:39;5.40;;;1.75;;
22363;SDS011;11349;53.412;-1.328;2023-05-02T00:37:05;9.02;;;2.30;;
22363;SDS011;11349;53.412;-1.328;2023-05-02T00:39:33;10.25;;;1.95;;
22363;SDS011;11349;53.412;-1.328;2023-05-02T00:41:59;6.68;;;2.20;;
22363;SDS011;11349;53.412;-1.328;2023-05-02T00:44:25;8.98;;;2.88;;
22363;SDS011;11349;53.412;-1.328;2023-05-02T00:46:51;8.15;;;2.03;;
22363;SDS011;11349;53.412;-1.328;2023-05-02T00:49:18;7.78;;;1.90;;
22363;SDS011;11349;53.412;-1.328;2023-05-02T00:51:44;7.68;;;1.70;;
22363;SDS011;11349;53.412;-1.328;2023-05-02T00:54:10;6.75;;;1.92;;
22363;SDS011;11349;53.412;-1.328;2023-05-02T00:56:38;12.23;;;2.22;;
22363;SDS011;11349;53.412;-1.328;2023-05-02T00:59:04;5.53;;;1.85;;
22363;SDS011;11349;53.412;-1.328;2023-05-02T01:15:13;10.30;;;2.70;;
22363;SDS011;11349;53.412;-1.328;2023-05-02T01:17:43;11.65;;;3.50;;
22363;SDS011;11349;53.412;-1.328;2023-05-02T01:20:12;7.63;;;2.17;;
22363;SDS011;11349;53.412;-1.328;2023-05-02T01:22:41;12.07;;;2.70;;
22363;SDS011;11349;53.412;-1.328;2023-05-02T01:28:09;7.75;;;2.53;;
22363;SDS011;11349;53.412;-1.328;2023-05-02T01:30:46;9.60;;;2.92;;
22363;SDS011;11349;53.412;-1.328;2023-05-02T01:33:14;7.03;;;2.67;;
22363;SDS011;11349;53.412;-1.328;2023-05-02T01:35:43;9.63;;;2.60;;
22363;SDS011;11349;53.412;-1.328;2023-05-02T01:38:13;4.35;;;2.15;;
22363;SDS011;11349;53.412;-1.328;2023-05-02T01:40:43;8.98;;;2.55;;
22363;SDS011;11349;53.412;-1.328;2023-05-02T01:43:11;9.35;;;2.40;;
22363;SDS011;11349;53.412;-1.328;2023-05-02T01:45:42;5.45;;;2.20;;
22363;SDS011;11349;53.412;-1.328;2023-05-02T01:48:09;10.43;;;2.78;;
22363;SDS011;11349;53.412;-1.328;2023-05-02T01:50:36;7.53;;;2.55;;
22363;SDS011;11349;53.412;-1.328;2023-05-02T01:53:05;12.43;;;2.83;;
22363;SDS011;11349;53.412;-1.328;2023-05-02T01:55:33;9.82;;;2.80;;
22363;SDS011;11349;53.412;-1.328;2023-05-02T01:58:02;11.35;;;3.00;;
22363;SDS011;11349;53.412;-1.328;2023-05-02T02:00:30;13.43;;;3.60;;
22363;SDS011;11349;53.412;-1.328;2023-05-02T02:02:56;12.35;;;4.20;;
22363;SDS011;11349;53.412;-1.328;2023-05-02T02:05:23;11.15;;;3.20;;
22363;SDS011;11349;53.412;-1.328;2023-05-02T02:07:50;12.27;;;3.53;;
22363;SDS011;11349;53.412;-1.328;2023-05-02T02:10:16;14.52;;;3.75;;
22363;SDS011;11349;53.412;-1.328;2023-05-02T02:12:44;10.13;;;3.28;;
22363;SDS011;11349;53.412;-1.328;2023-05-02T02:15:19;14.25;;;3.40;;
22363;SDS011;11349;53.412;-1.328;2023-05-02T02:17:56;7.90;;;3.08;;
22363;SDS011;11349;53.412;-1.328;2023-05-02T02:20:28;9.68;;;2.88;;
22363;SDS011;11349;53.412;-1.328;2023-05-02T02:22:56;12.63;;;3.10;;
22363;SDS011;11349;53.412;-1.328;2023-05-02T02:25:24;14.68;;;3.63;;
22363;SDS011;11349;53.412;-1.328;2023-05-02T02:27:51;10.85;;;3.30;;
22363;SDS011;11349;53.412;-1.328;2023-05-02T02:30:17;8.80;;;2.90;;
22363;SDS011;11349;53.412;-1.328;2023-05-02T02:32:43;8.13;;;3.15;;
22363;SDS011;11349;53.412;-1.328;2023-05-02T02:35:09;9.50;;;2.55;;
22363;SDS011;11349;53.412;-1.328;2023-05-02T02:37:40;14.13;;;3.40;;
22363;SDS011;11349;53.412;-1.328;2023-05-02T02:40:16;9.32;;;3.00;;
22363;SDS011;11349;53.412;-1.328;2023-05-02T02:45:37;11.30;;;2.70;;
22363;SDS011;11349;53.412;-1.328;2023-05-02T02:48:18;12.38;;;2.83;;
22363;SDS011;11349;53.412;-1.328;2023-05-02T02:56:45;10.32;;;3.17;;
22363;SDS011;11349;53.412;-1.328;2023-05-02T02:59:19;8.93;;;2.63;;
22363;SDS011;11349;53.412;-1.328;2023-05-02T03:01:58;8.65;;;2.92;;
22363;SDS011;11349;53.412;-1.328;2023-05-02T03:04:33;11.27;;;2.92;;
22363;SDS011;11349;53.412;-1.328;2023-05-02T03:07:02;11.05;;;3.08;;
22363;SDS011;11349;53.412;-1.328;2023-05-02T03:09:38;11.15;;;3.28;;
22363;SDS011;11349;53.412;-1.328;2023-05-02T03:12:05;14.55;;;3.28;;
22363;SDS011;11349;53.412;-1.328;2023-05-02T03:14:30;13.32;;;3.55;;
22363;SDS011;11349;53.412;-1.328;2023-05-02T03:16:56;11.27;;;3.05;;
22363;SDS011;11349;53.412;-1.328;2023-05-02T03:19:22;8.23;;;3.00;;
22363;SDS011;11349;53.412;-1.328;2023-05-02T03:21:48;15.65;;;3.70;;
22363;SDS011;11349;53.412;-1.328;2023-05-02T03:24:13;9.93;;;2.80;;
22363;SDS011;11349;53.412;-1.328;2023-05-02T03:26:39;10.00;;;2.88;;
22363;SDS011;11349;53.412;-1.328;2023-05-02T03:29:05;11.13;;;3.20;;
22363;SDS011;11349;53.412;-1.328;2023-05-02T03:31:31;9.20;;;3.20;;
22363;SDS011;11349;53.412;-1.328;2023-05-02T03:33:57;11.60;;;4.43;;
22363;SDS011;11349;53.412;-1.328;2023-05-02T03:36:23;10.02;;;3.38;;
22363;SDS011;11349;53.412;-1.328;2023-05-02T03:38:48;12.23;;;4.00;;
22363;SDS011;11349;53.412;-1.328;2023-05-02T03:41:14;11.30;;;3.13;;
22363;SDS011;11349;53.412;-1.328;2023-05-02T03:43:40;11.45;;;3.42;;
22363;SDS011;11349;53.412;-1.328;2023-05-02T03:46:06;15.18;;;3.53;;
22363;SDS011;11349;53.412;-1.328;2023-05-02T03:48:35;11.43;;;3.63;;
22363;SDS011;11349;53.412;-1.328;2023-05-02T03:51:01;8.30;;;3.17;;
22363;SDS011;11349;53.412;-1.328;2023-05-02T03:53:29;9.10;;;3.47;;
22363;SDS011;11349;53.412;-1.328;2023-05-02T03:55:58;20.58;;;5.00;;
22363;SDS011;11349;53.412;-1.328;2023-05-02T03:58:24;10.02;;;3.25;;
22363;SDS011;11349;53.412;-1.328;2023-05-02T04:00:50;17.15;;;3.80;;
22363;SDS011;11349;53.412;-1.328;2023-05-02T04:03:17;11.75;;;3.30;;
22363;SDS011;11349;53.412;-1.328;2023-05-02T04:05:43;12.68;;;3.75;;
22363;SDS011;11349;53.412;-1.328;2023-05-02T04:08:09;10.38;;;3.50;;
22363;SDS011;11349;53.412;-1.328;2023-05-02T04:10:35;13.38;;;4.15;;
22363;SDS011;11349;53.412;-1.328;2023-05-02T04:13:02;13.23;;;3.63;;
22363;SDS011;11349;53.412;-1.328;2023-05-02T04:15:28;14.43;;;3.33;;
22363;SDS011;11349;53.412;-1.328;2023-05-02T04:17:56;8.57;;;3.28;;
22363;SDS011;11349;53.412;-1.328;2023-05-02T04:20:22;13.77;;;3.53;;
22363;SDS011;11349;53.412;-1.328;2023-05-02T04:22:48;7.40;;;3.22;;
22363;SDS011;11349;53.412;-1.328;2023-05-02T04:25:14;9.93;;;3.63;;
22363;SDS011;11349;53.412;-1.328;2023-05-02T04:27:40;9.52;;;3.35;;
22363;SDS011;11349;53.412;-1.328;2023-05-02T04:30:06;9.93;;;4.13;;
22363;SDS011;11349;53.412;-1.328;2023-05-02T04:32:34;10.13;;;3.47;;
22363;SDS011;11349;53.412;-1.328;2023-05-02T04:35:00;13.73;;;4.60;;
22363;SDS011;11349;53.412;-1.328;2023-05-02T04:37:25;13.77;;;3.85;;
22363;SDS011;11349;53.412;-1.328;2023-05-02T04:39:51;10.15;;;3.58;;
22363;SDS011;11349;53.412;-1.328;2023-05-02T04:42:17;12.80;;;4.30;;
22363;SDS011;11349;53.412;-1.328;2023-05-02T04:44:47;12.63;;;3.65;;
22363;SDS011;11349;53.412;-1.328;2023-05-02T04:47:13;11.15;;;4.20;;
22363;SDS011;11349;53.412;-1.328;2023-05-02T04:49:39;12.48;;;4.97;;
22363;SDS011;11349;53.412;-1.328;2023-05-02T04:52:05;13.75;;;4.80;;
22363;SDS011;11349;53.412;-1.328;2023-05-02T04:54:33;17.02;;;4.78;;
22363;SDS011;11349;53.412;-1.328;2023-05-02T04:56:59;21.17;;;6.13;;
22363;SDS011;11349;53.412;-1.328;2023-05-02T04:59:27;11.00;;;4.00;;
22363;SDS011;11349;53.412;-1.328;2023-05-02T05:01:54;14.57;;;4.00;;
22363;SDS011;11349;53.412;-1.328;2023-05-02T05:04:20;12.60;;;4.55;;
22363;SDS011;11349;53.412;-1.328;2023-05-02T05:06:45;16.30;;;4.53;;
22363;SDS011;11349;53.412;-1.328;2023-05-02T05:09:13;20.10;;;4.18;;
22363;SDS011;11349;53.412;-1.328;2023-05-02T05:11:39;17.83;;;4.78;;
22363;SDS011;11349;53.412;-1.328;2023-05-02T05:14:06;13.05;;;4.28;;
22363;SDS011;11349;53.412;-1.328;2023-05-02T05:16:32;14.48;;;3.70;;
22363;SDS011;11349;53.412;-1.328;2023-05-02T05:18:58;11.07;;;3.85;;
22363;SDS011;11349;53.412;-1.328;2023-05-02T05:21:24;13.43;;;4.50;;
22363;SDS011;11349;53.412;-1.328;2023-05-02T05:23:51;14.48;;;4.53;;
22363;SDS011;11349;53.412;-1.328;2023-05-02T05:26:17;12.05;;;4.68;;
22363;SDS011;11349;53.412;-1.328;2023-05-02T05:28:43;14.85;;;4.85;;
22363;SDS011;11349;53.412;-1.328;2023-05-02T05:31:10;10.88;;;4.43;;
22363;SDS011;11349;53.412;-1.328;2023-05-02T05:33:37;12.02;;;3.90;;
22363;SDS011;11349;53.412;-1.328;2023-05-02T05:36:07;13.43;;;4.32;;
22363;SDS011;11349;53.412;-1.328;2023-05-02T05:38:33;13.35;;;4.38;;
22363;SDS011;11349;53.412;-1.328;2023-05-02T05:41:02;12.00;;;4.03;;
22363;SDS011;11349;53.412;-1.328;2023-05-02T05:43:35;16.67;;;4.38;;
22363;SDS011;11349;53.412;-1.328;2023-05-02T05:46:01;12.35;;;4.60;;
22363;SDS011;11349;53.412;-1.328;2023-05-02T05:48:27;19.98;;;4.65;;
22363;SDS011;11349;53.412;-1.328;2023-05-02T05:50:53;15.45;;;4.07;;
22363;SDS011;11349;53.412;-1.328;2023-05-02T05:53:18;12.25;;;4.43;;
22363;SDS011;11349;53.412;-1.328;2023-05-02T05:55:45;14.63;;;4.38;;
22363;SDS011;11349;53.412;-1.328;2023-05-02T05:58:11;10.98;;;3.92;;
22363;SDS011;11349;53.412;-1.328;2023-05-02T06:00:37;12.70;;;4.05;;
22363;SDS011;11349;53.412;-1.328;2023-05-02T06:03:03;10.88;;;3.65;;
22363;SDS011;11349;53.412;-1.328;2023-05-02T06:05:31;16.48;;;3.63;;
22363;SDS011;11349;53.412;-1.328;2023-05-02T06:07:57;13.05;;;5.05;;
22363;SDS011;11349;53.412;-1.328;2023-05-02T06:10:23;12.82;;;4.03;;
22363;SDS011;11349;53.412;-1.328;2023-05-02T06:12:49;12.60;;;4.95;;
22363;SDS011;11349;53.412;-1.328;2023-05-02T06:15:17;12.48;;;3.40;;
22363;SDS011;11349;53.412;-1.328;2023-05-02T06:17:43;11.70;;;3.33;;
22363;SDS011;11349;53.412;-1.328;2023-05-02T06:20:09;15.13;;;3.85;;
22363;SDS011;11349;53.412;-1.328;2023-05-02T06:22:35;13.40;;;3.63;;
22363;SDS011;11349;53.412;-1.328;2023-05-02T06:25:01;8.52;;;2.88;;
22363;SDS011;11349;53.412;-1.328;2023-05-02T06:27:29;9.63;;;2.95;;
22363;SDS011;11349;53.412;-1.328;2023-05-02T06:29:55;10.93;;;3.10;;
22363;SDS011;11349;53.412;-1.328;2023-05-02T06:32:20;13.45;;;3.13;;
22363;SDS011;11349;53.412;-1.328;2023-05-02T06:34:46;13.88;;;3.42;;
22363;SDS011;11349;53.412;-1.328;2023-05-02T06:37:12;9.82;;;3.15;;
22363;SDS011;11349;53.412;-1.328;2023-05-02T06:39:37;11.63;;;3.17;;
22363;SDS011;11349;53.412;-1.328;2023-05-02T06:42:03;12.90;;;3.28;;
22363;SDS011;11349;53.412;-1.328;2023-05-02T06:44:29;9.48;;;3.67;;
22363;SDS011;11349;53.412;-1.328;2023-05-02T06:46:54;8.73;;;2.90;;
22363;SDS011;11349;53.412;-1.328;2023-05-02T06:49:21;15.15;;;3.72;;
22363;SDS011;11349;53.412;-1.328;2023-05-02T06:51:47;10.63;;;3.90;;
22363;SDS011;11349;53.412;-1.328;2023-05-02T06:54:12;12.55;;;3.22;;
22363;SDS011;11349;53.412;-1.328;2023-05-02T06:56:39;12.30;;;3.28;;
22363;SDS011;11349;53.412;-1.328;2023-05-02T06:59:06;10.38;;;3.05;;
22363;SDS011;11349;53.412;-1.328;2023-05-02T07:01:31;9.82;;;2.70;;
22363;SDS011;11349;53.412;-1.328;2023-05-02T07:03:57;5.05;;;1.73;;
22363;SDS011;11349;53.412;-1.328;2023-05-02T07:06:23;8.55;;;2.22;;
22363;SDS011;11349;53.412;-1.328;2023-05-02T07:08:49;6.70;;;1.77;;
22363;SDS011;11349;53.412;-1.328;2023-05-02T07:11:14;8.05;;;2.90;;
22363;SDS011;11349;53.412;-1.328;2023-05-02T07:13:40;13.23;;;3.22;;
22363;SDS011;11349;53.412;-1.328;2023-05-02T07:16:06;6.72;;;2.60;;
22363;SDS011;11349;53.412;-1.328;2023-05-02T07:18:32;9.63;;;2.05;;
22363;SDS011;11349;53.412;-1.328;2023-05-02T07:20:57;12.10;;;2.78;;
22363;SDS011;11349;53.412;-1.328;2023-05-02T07:23:25;10.23;;;2.53;;
22363;SDS011;11349;53.412;-1.328;2023-05-02T07:25:51;6.78;;;2.75;;
22363;SDS011;11349;53.412;-1.328;2023-05-02T07:28:16;9.98;;;3.00;;
22363;SDS011;11349;53.412;-1.328;2023-05-02T07:30:42;11.57;;;3.03;;
22363;SDS011;11349;53.412;-1.328;2023-05-02T07:33:08;5.63;;;2.15;;
22363;SDS011;11349;53.412;-1.328;2023-05-02T07:35:33;11.45;;;2.38;;
22363;SDS011;11349;53.412;-1.328;2023-05-02T07:37:59;9.20;;;2.70;;
22363;SDS011;11349;53.412;-1.328;2023-05-02T07:40:25;7.95;;;2.30;;
22363;SDS011;11349;53.412;-1.328;2023-05-02T07:42:50;9.25;;;2.63;;
22363;SDS011;11349;53.412;-1.328;2023-05-02T07:45:16;7.43;;;2.40;;
22363;SDS011;11349;53.412;-1.328;2023-05-02T07:47:42;8.75;;;2.10;;
22363;SDS011;11349;53.412;-1.328;2023-05-02T07:50:09;10.57;;;2.72;;
22363;SDS011;11349;53.412;-1.328;2023-05-02T07:52:35;4.65;;;2.10;;
22363;SDS011;11349;53.412;-1.328;2023-05-02T07:55:01;9.00;;;2.10;;
22363;SDS011;11349;53.412;-1.328;2023-05-02T07:57:27;9.27;;;2.17;;
22363;SDS011;11349;53.412;-1.328;2023-05-02T07:59:52;5.47;;;1.95;;
22363;SDS011;11349;53.412;-1.328;2023-05-02T08:02:21;7.18;;;1.65;;
22363;SDS011;11349;53.412;-1.328;2023-05-02T08:04:47;7.07;;;2.03;;
22363;SDS011;11349;53.412;-1.328;2023-05-02T08:07:13;8.63;;;2.28;;
22363;SDS011;11349;53.412;-1.328;2023-05-02T08:09:39;8.77;;;2.22;;
22363;SDS011;11349;53.412;-1.328;2023-05-02T08:12:05;8.02;;;1.80;;
22363;SDS011;11349;53.412;-1.328;2023-05-02T08:14:31;9.85;;;2.42;;
22363;SDS011;11349;53.412;-1.328;2023-05-02T08:16:57;6.15;;;1.50;;
22363;SDS011;11349;53.412;-1.328;2023-05-02T08:19:24;10.07;;;2.05;;
22363;SDS011;11349;53.412;-1.328;2023-05-02T08:21:50;5.88;;;2.50;;
22363;SDS011;11349;53.412;-1.328;2023-05-02T08:24:18;8.30;;;1.83;;
22363;SDS011;11349;53.412;-1.328;2023-05-02T08:26:44;4.55;;;1.17;;
22363;SDS011;11349;53.412;-1.328;2023-05-02T08:29:09;8.93;;;1.73;;
22363;SDS011;11349;53.412;-1.328;2023-05-02T08:31:35;3.45;;;1.20;;
22363;SDS011;11349;53.412;-1.328;2023-05-02T08:34:02;4.95;;;1.52;;
22363;SDS011;11349;53.412;-1.328;2023-05-02T08:36:27;7.30;;;2.00;;
22363;SDS011;11349;53.412;-1.328;2023-05-02T08:38:53;5.03;;;1.73;;
22363;SDS011;11349;53.412;-1.328;2023-05-02T08:41:19;5.40;;;1.80;;
22363;SDS011;11349;53.412;-1.328;2023-05-02T08:43:46;6.68;;;1.50;;
22363;SDS011;11349;53.412;-1.328;2023-05-02T08:46:13;6.68;;;1.48;;
22363;SDS011;11349;53.412;-1.328;2023-05-02T08:48:40;4.80;;;1.52;;
22363;SDS011;11349;53.412;-1.328;2023-05-02T08:51:08;4.40;;;1.20;;
22363;SDS011;11349;53.412;-1.328;2023-05-02T08:53:38;7.47;;;1.58;;
22363;SDS011;11349;53.412;-1.328;2023-05-02T08:56:08;5.70;;;1.73;;
22363;SDS011;11349;53.412;-1.328;2023-05-02T08:58:36;4.45;;;1.38;;
22363;SDS011;11349;53.412;-1.328;2023-05-02T09:01:03;5.93;;;1.63;;
22363;SDS011;11349;53.412;-1.328;2023-05-02T09:03:44;8.98;;;2.03;;
22363;SDS011;11349;53.412;-1.328;2023-05-02T09:08:43;7.00;;;2.05;;
22363;SDS011;11349;53.412;-1.328;2023-05-02T09:11:12;9.18;;;2.35;;
22363;SDS011;11349;53.412;-1.328;2023-05-02T09:13:39;5.43;;;1.95;;
22363;SDS011;11349;53.412;-1.328;2023-05-02T09:16:09;5.75;;;2.50;;
22363;SDS011;11349;53.412;-1.328;2023-05-02T09:18:37;4.32;;;2.03;;
22363;SDS011;11349;53.412;-1.328;2023-05-02T09:21:05;5.75;;;1.92;;
22363;SDS011;11349;53.412;-1.328;2023-05-02T09:23:50;7.57;;;1.85;;
22363;SDS011;11349;53.412;-1.328;2023-05-02T09:26:24;4.63;;;1.75;;
22363;SDS011;11349;53.412;-1.328;2023-05-02T09:28:54;6.82;;;1.88;;
22363;SDS011;11349;53.412;-1.328;2023-05-02T09:31:24;5.22;;;2.03;;
22363;SDS011;11349;53.412;-1.328;2023-05-02T09:34:08;5.97;;;1.85;;
22363;SDS011;11349;53.412;-1.328;2023-05-02T09:36:41;6.07;;;2.00;;
22363;SDS011;11349;53.412;-1.328;2023-05-02T09:39:15;6.50;;;1.77;;
22363;SDS011;11349;53.412;-1.328;2023-05-02T09:41:45;10.35;;;1.90;;
22363;SDS011;11349;53.412;-1.328;2023-05-02T09:44:12;8.32;;;2.00;;
22363;SDS011;11349;53.412;-1.328;2023-05-02T09:46:39;7.63;;;1.77;;
22363;SDS011;11349;53.412;-1.328;2023-05-02T09:49:06;7.68;;;2.08;;
22363;SDS011;11349;53.412;-1.328;2023-05-02T09:51:33;5.63;;;1.90;;
22363;SDS011;11349;53.412;-1.328;2023-05-02T09:53:59;7.30;;;2.15;;
22363;SDS011;11349;53.412;-1.328;2023-05-02T09:56:25;6.63;;;1.70;;
22363;SDS011;11349;53.412;-1.328;2023-05-02T09:58:58;7.45;;;1.92;;
22363;SDS011;11349;53.412;-1.328;2023-05-02T10:01:40;9.23;;;2.67;;
22363;SDS011;11349;53.412;-1.328;2023-05-02T10:04:08;7.78;;;2.15;;
22363;SDS011;11349;53.412;-1.328;2023-05-02T10:06:41;9.48;;;1.90;;
22363;SDS011;11349;53.412;-1.328;2023-05-02T10:09:08;4.18;;;1.80;;
22363;SDS011;11349;53.412;-1.328;2023-05-02T10:11:36;13.25;;;3.08;;
22363;SDS011;11349;53.412;-1.328;2023-05-02T10:14:05;6.28;;;1.83;;
22363;SDS011;11349;53.412;-1.328;2023-05-02T10:16:35;8.85;;;2.30;;
22363;SDS011;11349;53.412;-1.328;2023-05-02T10:19:08;9.18;;;1.60;;
22363;SDS011;11349;53.412;-1.328;2023-05-02T10:21:36;6.88;;;2.35;;
22363;SDS011;11349;53.412;-1.328;2023-05-02T10:24:03;5.63;;;1.80;;
22363;SDS011;11349;53.412;-1.328;2023-05-02T10:26:30;7.50;;;2.38;;
22363;SDS011;11349;53.412;-1.328;2023-05-02T10:28:58;7.38;;;1.33;;
22363;SDS011;11349;53.412;-1.328;2023-05-02T10:31:25;6.25;;;1.90;;
22363;SDS011;11349;53.412;-1.328;2023-05-02T10:33:56;8.52;;;2.00;;
22363;SDS011;11349;53.412;-1.328;2023-05-02T10:36:25;11.27;;;1.95;;
22363;SDS011;11349;53.412;-1.328;2023-05-02T10:38:52;6.50;;;2.10;;
22363;SDS011;11349;53.412;-1.328;2023-05-02T10:41:19;7.07;;;1.92;;
22363;SDS011;11349;53.412;-1.328;2023-05-02T10:43:48;5.97;;;2.25;;
22363;SDS011;11349;53.412;-1.328;2023-05-02T10:49:00;7.03;;;2.60;;
22363;SDS011;11349;53.412;-1.328;2023-05-02T10:51:37;5.20;;;1.60;;
22363;SDS011;11349;53.412;-1.328;2023-05-02T10:54:21;7.00;;;1.67;;
22363;SDS011;11349;53.412;-1.328;2023-05-02T10:59:39;8.77;;;2.78;;
22363;SDS011;11349;53.412;-1.328;2023-05-02T11:07:24;8.57;;;2.08;;
22363;SDS011;11349;53.412;-1.328;2023-05-02T11:09:50;8.50;;;2.50;;
22363;SDS011;11349;53.412;-1.328;2023-05-02T11:15:13;8.48;;;2.72;;
22363;SDS011;11349;53.412;-1.328;2023-05-02T11:20:42;6.95;;;2.28;;
22363;SDS011;11349;53.412;-1.328;2023-05-02T11:25:38;6.68;;;2.03;;
22363;SDS011;11349;53.412;-1.328;2023-05-02T11:31:02;8.52;;;1.80;;
22363;SDS011;11349;53.412;-1.328;2023-05-02T11:34:01;6.10;;;2.00;;
22363;SDS011;11349;53.412;-1.328;2023-05-02T11:36:34;8.48;;;1.73;;
22363;SDS011;11349;53.412;-1.328;2023-05-02T11:39:01;7.78;;;2.42;;
22363;SDS011;11349;53.412;-1.328;2023-05-02T11:44:23;7.03;;;2.20;;
22363;SDS011;11349;53.412;-1.328;2023-05-02T11:46:48;5.75;;;2.63;;
22363;SDS011;11349;53.412;-1.328;2023-05-02T11:49:14;6.15;;;2.50;;
22363;SDS011;11349;53.412;-1.328;2023-05-02T11:51:40;6.85;;;1.90;;
22363;SDS011;11349;53.412;-1.328;2023-05-02T11:54:06;5.82;;;1.85;;
22363;SDS011;11349;53.412;-1.328;2023-05-02T11:56:32;7.63;;;1.98;;
22363;SDS011;11349;53.412;-1.328;2023-05-02T11:58:58;7.25;;;2.10;;
22363;SDS011;11349;53.412;-1.328;2023-05-02T12:01:25;8.38;;;2.00;;
22363;SDS011;11349;53.412;-1.328;2023-05-02T12:04:00;6.93;;;2.25;;
22363;SDS011;11349;53.412;-1.328;2023-05-02T12:06:31;9.18;;;3.13;;
22363;SDS011;11349;53.412;-1.328;2023-05-02T12:09:11;7.68;;;2.33;;
22363;SDS011;11349;53.412;-1.328;2023-05-02T12:11:40;8.07;;;2.22;;
22363;SDS011;11349;53.412;-1.328;2023-05-02T12:14:05;6.30;;;2.05;;
22363;SDS011;11349;53.412;-1.328;2023-05-02T12:16:31;7.22;;;2.70;;
22363;SDS011;11349;53.412;-1.328;2023-05-02T12:18:57;6.32;;;2.28;;
22363;SDS011;11349;53.412;-1.328;2023-05-02T12:21:26;9.68;;;2.72;;
22363;SDS011;11349;53.412;-1.328;2023-05-02T12:23:53;8.45;;;2.92;;
22363;SDS011;11349;53.412;-1.328;2023-05-02T12:26:20;5.50;;;1.80;;
22363;SDS011;11349;53.412;-1.328;2023-05-02T12:28:53;6.97;;;2.22;;
22363;SDS011;11349;53.412;-1.328;2023-05-02T12:31:19;6.43;;;2.65;;
22363;SDS011;11349;53.412;-1.328;2023-05-02T12:33:45;4.57;;;2.30;;
22363;SDS011;11349;53.412;-1.328;2023-05-02T12:36:16;7.05;;;2.55;;
22363;SDS011;11349;53.412;-1.328;2023-05-02T12:41:19;7.43;;;2.47;;
22363;SDS011;11349;53.412;-1.328;2023-05-02T12:43:57;8.88;;;2.20;;
22363;SDS011;11349;53.412;-1.328;2023-05-02T12:46:27;8.40;;;2.15;;
22363;SDS011;11349;53.412;-1.328;2023-05-02T12:49:03;4.63;;;2.25;;
22363;SDS011;11349;53.412;-1.328;2023-05-02T12:51:33;10.10;;;3.60;;
22363;SDS011;11349;53.412;-1.328;2023-05-02T12:54:00;4.82;;;1.60;;
22363;SDS011;11349;53.412;-1.328;2023-05-02T12:56:26;7.10;;;1.90;;
22363;SDS011;11349;53.412;-1.328;2023-05-02T12:58:56;5.32;;;1.83;;
22363;SDS011;11349;53.412;-1.328;2023-05-02T13:01:27;3.70;;;1.33;;
22363;SDS011;11349;53.412;-1.328;2023-05-02T13:03:53;6.15;;;2.10;;
22363;SDS011;11349;53.412;-1.328;2023-05-02T13:06:19;4.43;;;2.00;;
22363;SDS011;11349;53.412;-1.328;2023-05-02T13:08:44;7.32;;;2.25;;
22363;SDS011;11349;53.412;-1.328;2023-05-02T13:11:10;4.93;;;2.08;;
22363;SDS011;11349;53.412;-1.328;2023-05-02T13:13:38;5.97;;;2.20;;
22363;SDS011;11349;53.412;-1.328;2023-05-02T13:16:03;5.22;;;1.90;;
22363;SDS011;11349;53.412;-1.328;2023-05-02T13:18:29;6.72;;;2.70;;
22363;SDS011;11349;53.412;-1.328;2023-05-02T13:20:55;6.50;;;2.25;;
22363;SDS011;11349;53.412;-1.328;2023-05-02T13:23:21;4.95;;;1.77;;
22363;SDS011;11349;53.412;-1.328;2023-05-02T13:25:46;8.57;;;2.40;;
22363;SDS011;11349;53.412;-1.328;2023-05-02T13:28:12;5.30;;;2.08;;
22363;SDS011;11349;53.412;-1.328;2023-05-02T13:30:38;8.00;;;2.17;;
22363;SDS011;11349;53.412;-1.328;2023-05-02T13:33:03;6.40;;;2.13;;
22363;SDS011;11349;53.412;-1.328;2023-05-02T13:35:29;8.23;;;2.50;;
22363;SDS011;11349;53.412;-1.328;2023-05-02T13:37:55;5.75;;;2.15;;
22363;SDS011;11349;53.412;-1.328;2023-05-02T13:40:20;5.40;;;2.35;;
22363;SDS011;11349;53.412;-1.328;2023-05-02T13:42:46;5.38;;;2.17;;
22363;SDS011;11349;53.412;-1.328;2023-05-02T13:45:12;5.65;;;2.47;;
22363;SDS011;11349;53.412;-1.328;2023-05-02T13:47:38;8.50;;;2.33;;
22363;SDS011;11349;53.412;-1.328;2023-05-02T13:50:04;6.00;;;2.22;;
22363;SDS011;11349;53.412;-1.328;2023-05-02T13:52:31;6.43;;;2.40;;
22363;SDS011;11349;53.412;-1.328;2023-05-02T13:54:56;4.53;;;2.13;;
22363;SDS011;11349;53.412;-1.328;2023-05-02T13:57:22;8.20;;;2.30;;
22363;SDS011;11349;53.412;-1.328;2023-05-02T13:59:47;6.72;;;2.00;;
22363;SDS011;11349;53.412;-1.328;2023-05-02T14:02:13;7.93;;;1.83;;
22363;SDS011;11349;53.412;-1.328;2023-05-02T14:04:39;4.90;;;2.28;;
22363;SDS011;11349;53.412;-1.328;2023-05-02T14:07:05;6.50;;;2.00;;
22363;SDS011;11349;53.412;-1.328;2023-05-02T14:09:30;4.32;;;2.00;;
22363;SDS011;11349;53.412;-1.328;2023-05-02T14:11:56;4.88;;;1.83;;
22363;SDS011;11349;53.412;-1.328;2023-05-02T14:14:22;8.73;;;2.42;;
22363;SDS011;11349;53.412;-1.328;2023-05-02T14:16:48;6.38;;;2.60;;
22363;SDS011;11349;53.412;-1.328;2023-05-02T14:19:14;7.10;;;2.67;;
22363;SDS011;11349;53.412;-1.328;2023-05-02T14:21:40;6.30;;;2.70;;
22363;SDS011;11349;53.412;-1.328;2023-05-02T14:24:06;9.32;;;2.97;;
22363;SDS011;11349;53.412;-1.328;2023-05-02T14:26:31;7.65;;;2.95;;
22363;SDS011;11349;53.412;-1.328;2023-05-02T14:28:57;5.63;;;3.00;;
22363;SDS011;11349;53.412;-1.328;2023-05-02T14:31:23;7.03;;;2.35;;
22363;SDS011;11349;53.412;-1.328;2023-05-02T14:33:49;7.40;;;2.13;;
22363;SDS011;11349;53.412;-1.328;2023-05-02T14:36:14;5.57;;;2.10;;
22363;SDS011;11349;53.412;-1.328;2023-05-02T14:38:40;7.88;;;2.17;;
22363;SDS011;11349;53.412;-1.328;2023-05-02T14:41:06;9.15;;;2.20;;
22363;SDS011;11349;53.412;-1.328;2023-05-02T14:43:31;6.00;;;2.08;;
22363;SDS011;11349;53.412;-1.328;2023-05-02T14:45:57;6.50;;;2.47;;
22363;SDS011;11349;53.412;-1.328;2023-05-02T14:48:23;5.55;;;1.75;;
22363;SDS011;11349;53.412;-1.328;2023-05-02T14:50:49;5.80;;;2.20;;
22363;SDS011;11349;53.412;-1.328;2023-05-02T14:53:15;6.50;;;2.40;;
22363;SDS011;11349;53.412;-1.328;2023-05-02T14:55:41;9.50;;;2.20;;
22363;SDS011;11349;53.412;-1.328;2023-05-02T14:58:07;7.32;;;2.10;;
22363;SDS011;11349;53.412;-1.328;2023-05-02T15:00:34;7.00;;;2.15;;
22363;SDS011;11349;53.412;-1.328;2023-05-02T15:03:01;4.50;;;2.00;;
22363;SDS011;11349;53.412;-1.328;2023-05-02T15:05:31;6.65;;;2.22;;
22363;SDS011;11349;53.412;-1.328;2023-05-02T15:07:58;5.40;;;2.40;;
22363;SDS011;11349;53.412;-1.328;2023-05-02T15:10:24;7.40;;;2.30;;
22363;SDS011;11349;53.412;-1.328;2023-05-02T15:12:49;9.93;;;3.00;;
22363;SDS011;11349;53.412;-1.328;2023-05-02T15:15:18;4.47;;;1.83;;
22363;SDS011;11349;53.412;-1.328;2023-05-02T15:17:48;7.60;;;2.17;;
22363;SDS011;11349;53.412;-1.328;2023-05-02T15:20:15;6.50;;;1.63;;
22363;SDS011;11349;53.412;-1.328;2023-05-02T15:22:40;7.32;;;2.20;;
22363;SDS011;11349;53.412;-1.328;2023-05-02T15:25:06;4.65;;;1.80;;
22363;SDS011;11349;53.412;-1.328;2023-05-02T15:27:32;6.30;;;1.70;;